sensor_id;sensor_type;location;lat;lon;timestamp;temperature;humidity
77039;DHT22;65970;50.476;4.840;2023-11-19T00:03:00;12.10;46.20
77039;DHT22;65970;50.476;4.840;2023-11-19T00:08:00;12.10;46.30
77039;DHT22;65970;50.476;4.840;2023-11-19T00:13:01;12.10;46.30
77039;DHT22;65970;50.476;4.840;2023-11-19T00:18:01;12.20;46.30
77039;DHT22;65970;50.476;4.840;2023-11-19T00:23:02;12.20;46.30
77039;DHT22;65970;50.476;4.840;2023-11-19T00:28:02;12.20;46.20
77039;DHT22;65970;50.476;4.840;2023-11-19T00:33:03;12.30;46.30
77039;DHT22;65970;50.476;4.840;2023-11-19T00:38:04;12.20;46.30
77039;DHT22;65970;50.476;4.840;2023-11-19T00:43:04;12.30;46.50
77039;DHT22;65970;50.476;4.840;2023-11-19T00:48:05;12.30;46.50
77039;DHT22;65970;50.476;4.840;2023-11-19T00:53:05;12.30;46.50
77039;DHT22;65970;50.476;4.840;2023-11-19T00:58:06;12.40;46.60
77039;DHT22;65970;50.476;4.840;2023-11-19T01:03:06;12.40;46.60
77039;DHT22;65970;50.476;4.840;2023-11-19T01:08:07;12.40;46.60
77039;DHT22;65970;50.476;4.840;2023-11-19T01:13:08;12.50;46.70
77039;DHT22;65970;50.476;4.840;2023-11-19T01:18:08;12.50;46.70
77039;DHT22;65970;50.476;4.840;2023-11-19T01:23:09;12.50;46.80
77039;DHT22;65970;50.476;4.840;2023-11-19T01:28:09;12.50;46.80
77039;DHT22;65970;50.476;4.840;2023-11-19T01:33:10;12.50;46.70
77039;DHT22;65970;50.476;4.840;2023-11-19T01:38:10;12.60;46.80
77039;DHT22;65970;50.476;4.840;2023-11-19T01:43:11;12.60;46.80
77039;DHT22;65970;50.476;4.840;2023-11-19T01:48:13;12.60;46.70
77039;DHT22;65970;50.476;4.840;2023-11-19T01:53:14;12.60;46.70
77039;DHT22;65970;50.476;4.840;2023-11-19T01:58:15;12.60;46.70
77039;DHT22;65970;50.476;4.840;2023-11-19T02:03:17;12.60;46.80
77039;DHT22;65970;50.476;4.840;2023-11-19T02:08:17;12.60;46.80
77039;DHT22;65970;50.476;4.840;2023-11-19T02:13:21;12.70;46.90
77039;DHT22;65970;50.476;4.840;2023-11-19T02:23:22;12.70;47.00
77039;DHT22;65970;50.476;4.840;2023-11-19T02:28:23;12.70;47.10
77039;DHT22;65970;50.476;4.840;2023-11-19T02:33:24;12.70;47.10
77039;DHT22;65970;50.476;4.840;2023-11-19T02:38:24;12.70;47.10
77039;DHT22;65970;50.476;4.840;2023-11-19T02:43:25;12.70;47.30
77039;DHT22;65970;50.476;4.840;2023-11-19T02:48:25;12.70;47.30
77039;DHT22;65970;50.476;4.840;2023-11-19T02:53:26;12.80;47.30
77039;DHT22;65970;50.476;4.840;2023-11-19T02:58:29;12.70;47.30
77039;DHT22;65970;50.476;4.840;2023-11-19T03:03:30;12.80;47.30
77039;DHT22;65970;50.476;4.840;2023-11-19T03:08:30;12.80;47.40
77039;DHT22;65970;50.476;4.840;2023-11-19T03:13:31;12.80;46.50
77039;DHT22;65970;50.476;4.840;2023-11-19T03:18:31;12.80;47.60
77039;DHT22;65970;50.476;4.840;2023-11-19T03:23:32;12.80;47.50
77039;DHT22;65970;50.476;4.840;2023-11-19T03:28:33;12.80;47.50
77039;DHT22;65970;50.476;4.840;2023-11-19T03:33:33;12.80;47.50
77039;DHT22;65970;50.476;4.840;2023-11-19T03:38:34;12.80;47.50
77039;DHT22;65970;50.476;4.840;2023-11-19T03:43:34;12.80;47.50
77039;DHT22;65970;50.476;4.840;2023-11-19T03:48:35;12.80;47.50
77039;DHT22;65970;50.476;4.840;2023-11-19T03:53:35;12.80;47.40
77039;DHT22;65970;50.476;4.840;2023-11-19T03:58:36;12.80;47.50
77039;DHT22;65970;50.476;4.840;2023-11-19T04:03:36;12.80;47.50
77039;DHT22;65970;50.476;4.840;2023-11-19T04:08:37;12.80;47.60
77039;DHT22;65970;50.476;4.840;2023-11-19T04:13:37;12.80;47.50
77039;DHT22;65970;50.476;4.840;2023-11-19T04:18:38;12.80;47.50
77039;DHT22;65970;50.476;4.840;2023-11-19T04:23:38;12.80;47.50
77039;DHT22;65970;50.476;4.840;2023-11-19T04:28:39;12.80;47.50
77039;DHT22;65970;50.476;4.840;2023-11-19T04:33:39;12.90;47.80
77039;DHT22;65970;50.476;4.840;2023-11-19T04:38:40;12.90;47.80
77039;DHT22;65970;50.476;4.840;2023-11-19T04:43:40;12.90;47.80
77039;DHT22;65970;50.476;4.840;2023-11-19T04:48:41;12.90;47.80
77039;DHT22;65970;50.476;4.840;2023-11-19T04:53:41;12.90;47.80
77039;DHT22;65970;50.476;4.840;2023-11-19T04:58:42;12.90;47.80
77039;DHT22;65970;50.476;4.840;2023-11-19T05:03:43;12.90;47.70
77039;DHT22;65970;50.476;4.840;2023-11-19T05:08:44;12.90;47.70
77039;DHT22;65970;50.476;4.840;2023-11-19T05:13:45;12.90;47.80
77039;DHT22;65970;50.476;4.840;2023-11-19T05:18:45;12.90;47.80
77039;DHT22;65970;50.476;4.840;2023-11-19T05:23:46;12.90;47.80
77039;DHT22;65970;50.476;4.840;2023-11-19T05:28:46;12.90;47.80
77039;DHT22;65970;50.476;4.840;2023-11-19T05:33:47;12.90;47.80
77039;DHT22;65970;50.476;4.840;2023-11-19T05:38:48;12.90;47.90
77039;DHT22;65970;50.476;4.840;2023-11-19T05:43:48;12.90;47.90
77039;DHT22;65970;50.476;4.840;2023-11-19T05:48:49;12.90;47.70
77039;DHT22;65970;50.476;4.840;2023-11-19T05:53:49;12.90;47.80
77039;DHT22;65970;50.476;4.840;2023-11-19T05:58:50;12.90;47.80
77039;DHT22;65970;50.476;4.840;2023-11-19T06:03:50;12.90;47.70
77039;DHT22;65970;50.476;4.840;2023-11-19T06:08:51;12.90;47.80
77039;DHT22;65970;50.476;4.840;2023-11-19T06:13:51;12.90;47.80
77039;DHT22;65970;50.476;4.840;2023-11-19T06:18:52;12.90;48.10
77039;DHT22;65970;50.476;4.840;2023-11-19T06:23:52;12.90;47.90
77039;DHT22;65970;50.476;4.840;2023-11-19T06:28:53;12.90;48.00
77039;DHT22;65970;50.476;4.840;2023-11-19T06:33:54;12.90;47.80
77039;DHT22;65970;50.476;4.840;2023-11-19T06:38:54;12.90;47.60
77039;DHT22;65970;50.476;4.840;2023-11-19T06:43:55;12.90;47.70
77039;DHT22;65970;50.476;4.840;2023-11-19T06:48:55;12.80;47.40
77039;DHT22;65970;50.476;4.840;2023-11-19T06:53:56;12.80;47.50
77039;DHT22;65970;50.476;4.840;2023-11-19T06:58:56;12.80;47.50
77039;DHT22;65970;50.476;4.840;2023-11-19T07:03:57;12.80;47.60
77039;DHT22;65970;50.476;4.840;2023-11-19T07:08:57;12.80;47.60
77039;DHT22;65970;50.476;4.840;2023-11-19T07:13:58;12.80;47.40
77039;DHT22;65970;50.476;4.840;2023-11-19T07:18:58;12.80;47.30
77039;DHT22;65970;50.476;4.840;2023-11-19T07:23:59;12.80;47.30
77039;DHT22;65970;50.476;4.840;2023-11-19T07:29:02;12.80;47.20
77039;DHT22;65970;50.476;4.840;2023-11-19T07:34:03;12.80;47.20
77039;DHT22;65970;50.476;4.840;2023-11-19T07:39:04;12.80;47.20
77039;DHT22;65970;50.476;4.840;2023-11-19T07:44:05;12.80;47.20
77039;DHT22;65970;50.476;4.840;2023-11-19T07:49:05;12.70;47.30
77039;DHT22;65970;50.476;4.840;2023-11-19T07:54:06;12.70;47.30
77039;DHT22;65970;50.476;4.840;2023-11-19T07:59:06;12.70;47.30
77039;DHT22;65970;50.476;4.840;2023-11-19T08:04:07;12.70;47.40
77039;DHT22;65970;50.476;4.840;2023-11-19T08:09:07;12.70;47.40
77039;DHT22;65970;50.476;4.840;2023-11-19T08:14:08;12.70;47.40
77039;DHT22;65970;50.476;4.840;2023-11-19T08:19:09;12.70;47.30
77039;DHT22;65970;50.476;4.840;2023-11-19T08:24:09;12.70;47.40
77039;DHT22;65970;50.476;4.840;2023-11-19T08:29:10;12.70;47.80
77039;DHT22;65970;50.476;4.840;2023-11-19T08:34:11;12.70;47.70
77039;DHT22;65970;50.476;4.840;2023-11-19T08:39:12;12.70;47.70
77039;DHT22;65970;50.476;4.840;2023-11-19T08:44:12;12.70;47.70
77039;DHT22;65970;50.476;4.840;2023-11-19T08:49:13;12.70;47.80
77039;DHT22;65970;50.476;4.840;2023-11-19T08:54:13;12.70;47.80
77039;DHT22;65970;50.476;4.840;2023-11-19T08:59:14;12.70;47.80
77039;DHT22;65970;50.476;4.840;2023-11-19T09:04:14;12.80;47.70
77039;DHT22;65970;50.476;4.840;2023-11-19T09:09:15;12.80;47.70
77039;DHT22;65970;50.476;4.840;2023-11-19T09:14:18;12.80;47.70
77039;DHT22;65970;50.476;4.840;2023-11-19T09:19:19;12.90;47.70
77039;DHT22;65970;50.476;4.840;2023-11-19T09:24:19;12.90;47.70
77039;DHT22;65970;50.476;4.840;2023-11-19T09:29:20;13.00;47.70
77039;DHT22;65970;50.476;4.840;2023-11-19T09:34:20;13.00;47.50
77039;DHT22;65970;50.476;4.840;2023-11-19T09:39:21;13.00;47.40
77039;DHT22;65970;50.476;4.840;2023-11-19T09:44:21;13.00;47.40
77039;DHT22;65970;50.476;4.840;2023-11-19T09:49:24;13.00;47.20
77039;DHT22;65970;50.476;4.840;2023-11-19T09:54:26;13.10;47.30
77039;DHT22;65970;50.476;4.840;2023-11-19T09:59:27;13.10;47.30
77039;DHT22;65970;50.476;4.840;2023-11-19T10:04:30;13.10;47.20
77039;DHT22;65970;50.476;4.840;2023-11-19T10:09:30;13.10;47.20
77039;DHT22;65970;50.476;4.840;2023-11-19T10:14:31;13.10;47.40
77039;DHT22;65970;50.476;4.840;2023-11-19T10:19:32;13.10;47.40
77039;DHT22;65970;50.476;4.840;2023-11-19T10:24:33;13.10;47.40
77039;DHT22;65970;50.476;4.840;2023-11-19T10:29:36;13.10;47.30
77039;DHT22;65970;50.476;4.840;2023-11-19T10:34:37;13.20;47.20
77039;DHT22;65970;50.476;4.840;2023-11-19T10:39:54;13.20;47.20
77039;DHT22;65970;50.476;4.840;2023-11-19T10:44:54;13.20;47.20
77039;DHT22;65970;50.476;4.840;2023-11-19T10:49:56;13.20;47.10
77039;DHT22;65970;50.476;4.840;2023-11-19T10:55:00;13.20;47.20
77039;DHT22;65970;50.476;4.840;2023-11-19T11:00:02;13.20;47.20
77039;DHT22;65970;50.476;4.840;2023-11-19T11:05:03;13.20;47.20
77039;DHT22;65970;50.476;4.840;2023-11-19T11:10:06;13.20;47.20
77039;DHT22;65970;50.476;4.840;2023-11-19T11:15:08;13.20;47.30
77039;DHT22;65970;50.476;4.840;2023-11-19T11:20:10;13.30;47.40
77039;DHT22;65970;50.476;4.840;2023-11-19T11:25:28;13.30;47.30
77039;DHT22;65970;50.476;4.840;2023-11-19T11:36:43;13.40;46.50
77039;DHT22;65970;50.476;4.840;2023-11-19T11:41:46;13.40;47.40
77039;DHT22;65970;50.476;4.840;2023-11-19T11:46:55;13.40;47.40
77039;DHT22;65970;50.476;4.840;2023-11-19T11:51:59;13.40;47.30
77039;DHT22;65970;50.476;4.840;2023-11-19T12:02:04;13.50;47.30
77039;DHT22;65970;50.476;4.840;2023-11-19T12:07:11;13.50;47.10
77039;DHT22;65970;50.476;4.840;2023-11-19T12:12:18;13.50;47.10
77039;DHT22;65970;50.476;4.840;2023-11-19T12:17:40;13.50;47.20
77039;DHT22;65970;50.476;4.840;2023-11-19T12:22:42;13.50;47.20
77039;DHT22;65970;50.476;4.840;2023-11-19T12:27:46;13.50;47.20
77039;DHT22;65970;50.476;4.840;2023-11-19T12:32:46;13.50;47.10
77039;DHT22;65970;50.476;4.840;2023-11-19T12:37:49;13.50;47.10
77039;DHT22;65970;50.476;4.840;2023-11-19T12:42:53;13.50;47.10
77039;DHT22;65970;50.476;4.840;2023-11-19T12:48:06;13.50;47.20
77039;DHT22;65970;50.476;4.840;2023-11-19T12:53:07;13.50;47.20
77039;DHT22;65970;50.476;4.840;2023-11-19T12:58:08;13.50;47.20
77039;DHT22;65970;50.476;4.840;2023-11-19T13:03:08;13.50;47.30
77039;DHT22;65970;50.476;4.840;2023-11-19T13:08:09;13.50;47.40
77039;DHT22;65970;50.476;4.840;2023-11-19T13:13:10;13.50;47.50
77039;DHT22;65970;50.476;4.840;2023-11-19T13:18:11;13.50;47.50
77039;DHT22;65970;50.476;4.840;2023-11-19T13:23:11;13.50;47.50
77039;DHT22;65970;50.476;4.840;2023-11-19T13:28:12;13.50;47.50
77039;DHT22;65970;50.476;4.840;2023-11-19T13:33:12;13.50;47.60
77039;DHT22;65970;50.476;4.840;2023-11-19T13:38:13;13.60;47.60
77039;DHT22;65970;50.476;4.840;2023-11-19T13:43:13;13.60;47.50
77039;DHT22;65970;50.476;4.840;2023-11-19T13:48:14;13.60;47.50
77039;DHT22;65970;50.476;4.840;2023-11-19T13:53:15;13.60;47.50
77039;DHT22;65970;50.476;4.840;2023-11-19T13:58:15;13.60;47.40
77039;DHT22;65970;50.476;4.840;2023-11-19T14:03:16;13.60;47.30
77039;DHT22;65970;50.476;4.840;2023-11-19T14:08:16;13.60;47.20
77039;DHT22;65970;50.476;4.840;2023-11-19T14:13:17;13.70;47.40
77039;DHT22;65970;50.476;4.840;2023-11-19T14:18:18;13.70;47.30
77039;DHT22;65970;50.476;4.840;2023-11-19T14:23:18;13.70;47.30
77039;DHT22;65970;50.476;4.840;2023-11-19T14:28:19;13.70;47.20
77039;DHT22;65970;50.476;4.840;2023-11-19T14:33:20;13.70;47.10
77039;DHT22;65970;50.476;4.840;2023-11-19T14:38:20;13.70;47.10
77039;DHT22;65970;50.476;4.840;2023-11-19T14:43:21;13.70;47.00
77039;DHT22;65970;50.476;4.840;2023-11-19T14:48:21;13.70;47.00
77039;DHT22;65970;50.476;4.840;2023-11-19T14:53:22;13.80;46.90
77039;DHT22;65970;50.476;4.840;2023-11-19T14:58:22;13.80;46.90
77039;DHT22;65970;50.476;4.840;2023-11-19T15:03:23;13.70;47.10
77039;DHT22;65970;50.476;4.840;2023-11-19T15:08:23;13.70;47.00
77039;DHT22;65970;50.476;4.840;2023-11-19T15:13:24;13.80;46.90
77039;DHT22;65970;50.476;4.840;2023-11-19T15:18:25;13.70;46.90
77039;DHT22;65970;50.476;4.840;2023-11-19T15:23:25;13.70;46.90
77039;DHT22;65970;50.476;4.840;2023-11-19T15:28:26;13.70;46.90
77039;DHT22;65970;50.476;4.840;2023-11-19T15:33:26;13.70;46.90
77039;DHT22;65970;50.476;4.840;2023-11-19T15:38:27;13.70;46.90
77039;DHT22;65970;50.476;4.840;2023-11-19T15:43:28;13.70;46.90
77039;DHT22;65970;50.476;4.840;2023-11-19T15:48:28;13.70;46.80
77039;DHT22;65970;50.476;4.840;2023-11-19T15:53:29;13.70;46.80
77039;DHT22;65970;50.476;4.840;2023-11-19T15:58:30;13.70;46.90
77039;DHT22;65970;50.476;4.840;2023-11-19T16:03:30;13.70;46.50
77039;DHT22;65970;50.476;4.840;2023-11-19T16:08:31;13.70;46.70
77039;DHT22;65970;50.476;4.840;2023-11-19T16:13:31;13.70;46.70
77039;DHT22;65970;50.476;4.840;2023-11-19T16:18:32;13.70;46.60
77039;DHT22;65970;50.476;4.840;2023-11-19T16:23:32;13.70;46.60
77039;DHT22;65970;50.476;4.840;2023-11-19T16:28:33;13.70;46.60
77039;DHT22;65970;50.476;4.840;2023-11-19T16:33:33;13.60;46.40
77039;DHT22;65970;50.476;4.840;2023-11-19T16:38:34;13.60;46.40
77039;DHT22;65970;50.476;4.840;2023-11-19T16:43:35;13.60;46.30
77039;DHT22;65970;50.476;4.840;2023-11-19T16:48:35;13.60;46.40
77039;DHT22;65970;50.476;4.840;2023-11-19T16:53:36;13.60;46.30
77039;DHT22;65970;50.476;4.840;2023-11-19T16:58:36;13.60;46.30
77039;DHT22;65970;50.476;4.840;2023-11-19T17:03:37;13.60;46.30
77039;DHT22;65970;50.476;4.840;2023-11-19T17:08:38;13.60;46.00
77039;DHT22;65970;50.476;4.840;2023-11-19T17:13:38;13.60;46.10
77039;DHT22;65970;50.476;4.840;2023-11-19T17:18:39;13.60;46.10
77039;DHT22;65970;50.476;4.840;2023-11-19T17:23:39;13.60;45.70
77039;DHT22;65970;50.476;4.840;2023-11-19T17:28:40;13.60;45.70
77039;DHT22;65970;50.476;4.840;2023-11-19T17:33:41;13.60;45.90
77039;DHT22;65970;50.476;4.840;2023-11-19T17:38:41;13.60;45.90
77039;DHT22;65970;50.476;4.840;2023-11-19T17:43:42;13.60;45.90
77039;DHT22;65970;50.476;4.840;2023-11-19T17:48:42;13.60;45.70
77039;DHT22;65970;50.476;4.840;2023-11-19T17:53:43;13.60;45.60
77039;DHT22;65970;50.476;4.840;2023-11-19T17:58:43;13.60;45.60
77039;DHT22;65970;50.476;4.840;2023-11-19T18:03:44;13.60;45.60
77039;DHT22;65970;50.476;4.840;2023-11-19T18:08:45;13.60;45.60
77039;DHT22;65970;50.476;4.840;2023-11-19T18:13:45;13.60;45.80
77039;DHT22;65970;50.476;4.840;2023-11-19T18:18:46;13.60;45.80
77039;DHT22;65970;50.476;4.840;2023-11-19T18:23:46;13.60;45.70
77039;DHT22;65970;50.476;4.840;2023-11-19T18:28:47;13.60;45.60
77039;DHT22;65970;50.476;4.840;2023-11-19T18:33:47;13.50;45.50
77039;DHT22;65970;50.476;4.840;2023-11-19T18:38:48;13.60;45.40
77039;DHT22;65970;50.476;4.840;2023-11-19T18:43:49;13.60;45.30
77039;DHT22;65970;50.476;4.840;2023-11-19T18:48:49;13.50;45.40
77039;DHT22;65970;50.476;4.840;2023-11-19T18:53:50;13.50;45.50
77039;DHT22;65970;50.476;4.840;2023-11-19T18:58:50;13.50;45.50
77039;DHT22;65970;50.476;4.840;2023-11-19T19:03:51;13.50;45.40
77039;DHT22;65970;50.476;4.840;2023-11-19T19:08:51;13.50;45.40
77039;DHT22;65970;50.476;4.840;2023-11-19T19:13:52;13.50;45.40
77039;DHT22;65970;50.476;4.840;2023-11-19T19:18:52;13.50;45.40
77039;DHT22;65970;50.476;4.840;2023-11-19T19:23:53;13.50;45.50
77039;DHT22;65970;50.476;4.840;2023-11-19T19:28:53;13.50;45.40
77039;DHT22;65970;50.476;4.840;2023-11-19T19:33:54;13.50;45.50
77039;DHT22;65970;50.476;4.840;2023-11-19T19:38:55;13.40;45.40
77039;DHT22;65970;50.476;4.840;2023-11-19T19:43:56;13.40;45.40
77039;DHT22;65970;50.476;4.840;2023-11-19T19:48:56;13.40;45.40
77039;DHT22;65970;50.476;4.840;2023-11-19T19:53:57;13.40;45.40
77039;DHT22;65970;50.476;4.840;2023-11-19T19:58:57;13.40;45.40
77039;DHT22;65970;50.476;4.840;2023-11-19T20:03:58;13.40;45.40
77039;DHT22;65970;50.476;4.840;2023-11-19T20:08:58;13.40;45.50
77039;DHT22;65970;50.476;4.840;2023-11-19T20:14:00;13.30;45.50
77039;DHT22;65970;50.476;4.840;2023-11-19T20:19:01;13.30;45.50
77039;DHT22;65970;50.476;4.840;2023-11-19T20:24:01;13.30;45.50
77039;DHT22;65970;50.476;4.840;2023-11-19T20:29:02;13.30;45.50
77039;DHT22;65970;50.476;4.840;2023-11-19T20:34:02;13.30;45.60
77039;DHT22;65970;50.476;4.840;2023-11-19T20:39:03;13.30;45.60
77039;DHT22;65970;50.476;4.840;2023-11-19T20:44:03;13.30;45.60
77039;DHT22;65970;50.476;4.840;2023-11-19T20:49:04;13.20;44.60
77039;DHT22;65970;50.476;4.840;2023-11-19T20:54:05;13.20;45.60
77039;DHT22;65970;50.476;4.840;2023-11-19T20:59:05;13.30;45.70
77039;DHT22;65970;50.476;4.840;2023-11-19T21:04:06;13.20;45.70
77039;DHT22;65970;50.476;4.840;2023-11-19T21:09:06;13.20;45.60
77039;DHT22;65970;50.476;4.840;2023-11-19T21:14:07;13.20;45.60
77039;DHT22;65970;50.476;4.840;2023-11-19T21:19:07;13.20;45.60
77039;DHT22;65970;50.476;4.840;2023-11-19T21:24:08;13.20;45.70
77039;DHT22;65970;50.476;4.840;2023-11-19T21:29:09;13.20;45.60
77039;DHT22;65970;50.476;4.840;2023-11-19T21:34:09;13.20;45.70
77039;DHT22;65970;50.476;4.840;2023-11-19T21:39:10;13.20;45.70
77039;DHT22;65970;50.476;4.840;2023-11-19T21:44:10;13.20;45.60
77039;DHT22;65970;50.476;4.840;2023-11-19T21:49:11;13.20;45.60
77039;DHT22;65970;50.476;4.840;2023-11-19T21:54:11;13.10;45.60
77039;DHT22;65970;50.476;4.840;2023-11-19T21:59:12;13.10;45.60
77039;DHT22;65970;50.476;4.840;2023-11-19T22:04:13;13.10;45.60
77039;DHT22;65970;50.476;4.840;2023-11-19T22:09:13;13.10;45.60
77039;DHT22;65970;50.476;4.840;2023-11-19T22:14:14;13.10;45.60
77039;DHT22;65970;50.476;4.840;2023-11-19T22:19:14;13.10;45.70
77039;DHT22;65970;50.476;4.840;2023-11-19T22:24:15;13.10;45.70
77039;DHT22;65970;50.476;4.840;2023-11-19T22:29:15;13.20;45.60
77039;DHT22;65970;50.476;4.840;2023-11-19T22:34:16;13.10;45.60
77039;DHT22;65970;50.476;4.840;2023-11-19T22:39:16;13.10;45.70
77039;DHT22;65970;50.476;4.840;2023-11-19T22:44:17;13.10;45.70
77039;DHT22;65970;50.476;4.840;2023-11-19T22:49:17;13.10;45.70
77039;DHT22;65970;50.476;4.840;2023-11-19T22:54:18;13.10;45.70
77039;DHT22;65970;50.476;4.840;2023-11-19T22:59:19;13.10;45.70
77039;DHT22;65970;50.476;4.840;2023-11-19T23:04:19;13.10;45.70
77039;DHT22;65970;50.476;4.840;2023-11-19T23:09:20;13.10;45.60
77039;DHT22;65970;50.476;4.840;2023-11-19T23:14:20;13.10;45.70
77039;DHT22;65970;50.476;4.840;2023-11-19T23:19:21;13.10;45.70
77039;DHT22;65970;50.476;4.840;2023-11-19T23:24:21;13.10;45.80
77039;DHT22;65970;50.476;4.840;2023-11-19T23:29:22;13.10;45.80
77039;DHT22;65970;50.476;4.840;2023-11-19T23:34:22;13.10;45.80
77039;DHT22;65970;50.476;4.840;2023-11-19T23:39:23;13.10;45.80
77039;DHT22;65970;50.476;4.840;2023-11-19T23:44:23;13.10;45.80
77039;DHT22;65970;50.476;4.840;2023-11-19T23:49:24;13.10;45.80
77039;DHT22;65970;50.476;4.840;2023-11-19T23:54:24;13.10;45.80
77039;DHT22;65970;50.476;4.840;2023-11-19T23:59:25;13.10;45.90
